createdAt,value
2018-12-23T00:00:11.530Z,97551.62
2018-12-23T00:03:19.304Z,97554.84
2018-12-23T00:06:26.086Z,97554.55
2018-12-23T00:09:32.031Z,97562.80
2018-12-23T00:12:38.087Z,97565.34
2018-12-23T00:15:44.365Z,97567.05
2018-12-23T00:18:50.036Z,97572.93
2018-12-23T00:21:55.943Z,97578.56
2018-12-23T00:25:01.931Z,97583.36
2018-12-23T00:28:07.850Z,97587.97
2018-12-23T00:31:13.798Z,97584.53
2018-12-23T00:34:19.823Z,97585.45
2018-12-23T00:37:25.839Z,97581.98
2018-12-23T00:40:31.482Z,97591.94
2018-12-23T00:43:37.477Z,97596.39
2018-12-23T00:46:44.086Z,97599.27
2018-12-23T00:49:50.475Z,97608.24
2018-12-23T00:52:56.089Z,97609.52
2018-12-23T00:56:02.129Z,97615.27
2018-12-23T00:59:07.754Z,97614.89
2018-12-23T01:02:13.727Z,97620.67
2018-12-23T01:05:19.714Z,97618.66
2018-12-23T01:08:25.876Z,97629.20
2018-12-23T01:11:32.001Z,97629.80
2018-12-23T01:14:38.116Z,97645.64
2018-12-23T01:17:44.397Z,97642.40
2018-12-23T01:20:50.773Z,97650.97
2018-12-23T01:23:56.689Z,97653.02
2018-12-23T01:27:02.625Z,97653.44
2018-12-23T01:30:09.003Z,97667.72
2018-12-23T01:33:14.666Z,97674.59
2018-12-23T01:36:20.572Z,97679.39
2018-12-23T01:39:26.909Z,97680.95
2018-12-23T01:42:32.509Z,97690.15
2018-12-23T01:45:38.472Z,97685.08
2018-12-23T01:48:44.810Z,97690.33
2018-12-23T01:51:50.776Z,97692.14
2018-12-23T01:54:56.688Z,97698.52
2018-12-23T01:58:02.641Z,97696.01
2018-12-23T02:01:08.713Z,97697.46
2018-12-23T02:04:14.680Z,97707.20
2018-12-23T02:07:20.593Z,97700.47
2018-12-23T02:10:26.536Z,97700.05
2018-12-23T02:13:32.434Z,97698.73
2018-12-23T02:16:38.935Z,97702.11
2018-12-23T02:19:45.400Z,97705.99
2018-12-23T02:22:52.230Z,97705.14
2018-12-23T02:25:58.818Z,97709.04
2018-12-23T02:29:05.136Z,97711.45
2018-12-23T02:32:10.906Z,97708.57
2018-12-23T02:35:17.354Z,97711.39
2018-12-23T02:38:23.283Z,97703.06
2018-12-23T02:41:31.925Z,97711.09
2018-12-23T02:44:37.346Z,97714.83
2018-12-23T02:47:43.451Z,97710.61
2018-12-23T02:50:49.077Z,97712.41
2018-12-23T02:53:55.025Z,97705.44
2018-12-23T02:57:00.929Z,97709.75
2018-12-23T03:00:15.267Z,97703.48
2018-12-23T03:03:21.278Z,97707.16
2018-12-23T03:06:27.976Z,97703.97
2018-12-23T03:09:33.683Z,97707.06
2018-12-23T03:12:40.250Z,97706.36
2018-12-23T03:15:46.833Z,97708.12
2018-12-23T03:18:52.785Z,97704.58
2018-12-23T03:21:58.700Z,97701.27
2018-12-23T03:25:05.129Z,97700.02
2018-12-23T03:28:11.001Z,97703.08
2018-12-23T03:31:16.944Z,97703.28
2018-12-23T03:34:22.874Z,97703.48
2018-12-23T03:37:28.555Z,97696.97
2018-12-23T03:40:35.144Z,97705.34
2018-12-23T03:43:41.089Z,97701.41
2018-12-23T03:46:47.119Z,97700.45
2018-12-23T03:49:53.236Z,97697.52
2018-12-23T03:52:59.139Z,97699.70
2018-12-23T03:56:05.079Z,97696.86
2018-12-23T03:59:11.173Z,97704.69
2018-12-23T04:02:18.201Z,97705.96
2018-12-23T04:05:24.122Z,97700.50
2018-12-23T04:08:29.800Z,97698.13
2018-12-23T04:11:35.781Z,97699.70
2018-12-23T04:14:42.250Z,97704.22
2018-12-23T04:17:48.158Z,97703.33
2018-12-23T04:20:54.097Z,97703.17
2018-12-23T04:23:59.997Z,97693.28
2018-12-23T04:27:05.962Z,97694.59
2018-12-23T04:30:11.893Z,97699.32
2018-12-23T04:33:17.952Z,97700.20
2018-12-23T04:36:23.846Z,97698.92
2018-12-23T04:39:29.805Z,97693.00
2018-12-23T04:42:35.711Z,97685.27
2018-12-23T04:45:43.419Z,97695.02
2018-12-23T04:48:49.369Z,97692.09
2018-12-23T04:51:55.340Z,97687.00
2018-12-23T04:55:01.342Z,97693.34
2018-12-23T04:58:07.290Z,97686.63
2018-12-23T05:01:13.216Z,97696.26
2018-12-23T05:04:19.198Z,97700.45
2018-12-23T05:07:25.097Z,97700.91
2018-12-23T05:10:31.045Z,97704.18
2018-12-23T05:13:36.929Z,97705.63
2018-12-23T05:16:43.687Z,97705.19
2018-12-23T05:19:49.604Z,97723.11
2018-12-23T05:22:55.536Z,97713.20
2018-12-23T05:26:01.454Z,97720.44
2018-12-23T05:29:07.382Z,97717.80
2018-12-23T05:32:13.285Z,97732.95
2018-12-23T05:35:19.199Z,97741.00
2018-12-23T05:38:25.263Z,97753.80
2018-12-23T05:41:30.920Z,97748.69
2018-12-23T05:44:36.837Z,97736.66
2018-12-23T05:47:44.060Z,97730.40
2018-12-23T05:50:49.665Z,97741.06
2018-12-23T05:53:55.367Z,97742.42
2018-12-23T05:57:01.277Z,97749.44
2018-12-23T06:00:08.463Z,97751.19
2018-12-23T06:03:14.125Z,97750.84
2018-12-23T06:06:20.079Z,97752.87
2018-12-23T06:09:26.135Z,97761.34
2018-12-23T06:12:31.789Z,97762.64
2018-12-23T06:15:37.692Z,97761.28
2018-12-23T06:18:45.162Z,97759.14
2018-12-23T06:21:51.122Z,97773.14
2018-12-23T06:24:57.072Z,97769.28
2018-12-23T06:28:02.972Z,97761.48
2018-12-23T06:31:09.373Z,97767.72
2018-12-23T06:34:15.285Z,97760.84
2018-12-23T06:37:20.940Z,97759.28
2018-12-23T06:40:27.018Z,97759.14
2018-12-23T06:43:33.174Z,97761.31
2018-12-23T06:46:39.097Z,97758.73
2018-12-23T06:49:45.681Z,97763.41
2018-12-23T06:52:51.313Z,97762.88
2018-12-23T06:55:57.475Z,97768.48
2018-12-23T06:59:03.150Z,97766.61
2018-12-23T07:02:09.202Z,97763.14
2018-12-23T07:05:15.189Z,97771.94
2018-12-23T07:08:20.841Z,97775.78
2018-12-23T07:11:26.750Z,97776.18
2018-12-23T07:14:32.709Z,97776.20
2018-12-23T07:17:38.335Z,97771.30
2018-12-23T07:20:44.487Z,97782.30
2018-12-23T07:23:50.109Z,97778.14
2018-12-23T07:26:56.133Z,97786.16
2018-12-23T07:30:02.376Z,97789.54
2018-12-23T07:33:08.021Z,97786.25
2018-12-23T07:36:13.650Z,97790.15
2018-12-23T07:39:19.591Z,97793.33
2018-12-23T07:42:25.532Z,97786.20
2018-12-23T07:45:31.634Z,97790.30
2018-12-23T07:48:37.776Z,97788.27
2018-12-23T07:51:44.071Z,97784.09
2018-12-23T07:54:49.980Z,97784.90
2018-12-23T07:57:55.985Z,97786.12
2018-12-23T08:01:01.644Z,97798.11
2018-12-23T08:04:07.620Z,97788.25
2018-12-23T08:07:13.517Z,97790.41
2018-12-23T08:10:19.570Z,97790.83
2018-12-23T08:13:25.564Z,97780.14
2018-12-23T08:16:31.226Z,97791.58
2018-12-23T08:19:36.863Z,97787.77
2018-12-23T08:22:42.987Z,97790.41
2018-12-23T08:25:48.635Z,97793.70
2018-12-23T08:28:54.577Z,97794.25
2018-12-23T08:32:00.585Z,97796.72
2018-12-23T08:35:06.691Z,97794.16
2018-12-23T08:38:12.317Z,97795.86
2018-12-23T08:41:17.983Z,97794.94
2018-12-23T08:44:23.911Z,97792.38
2018-12-23T08:47:29.858Z,97793.66
2018-12-23T08:50:35.772Z,97791.08
2018-12-23T08:54:04.039Z,97794.07
2018-12-23T08:57:10.043Z,97789.70
2018-12-23T09:00:16.215Z,97794.31
2018-12-23T09:03:22.154Z,97788.38
2018-12-23T09:06:28.554Z,97793.42
2018-12-23T09:09:34.462Z,97786.21
2018-12-23T09:12:40.426Z,97791.75
2018-12-23T09:15:46.407Z,97787.05
2018-12-23T09:18:52.365Z,97788.30
2018-12-23T09:21:58.466Z,97793.31
2018-12-23T09:25:04.933Z,97788.17
2018-12-23T09:28:10.863Z,97780.12
2018-12-23T09:31:16.878Z,97774.58
2018-12-23T09:34:22.824Z,97774.56
2018-12-23T09:37:28.841Z,97786.38
2018-12-23T09:40:34.897Z,97791.83
2018-12-23T09:43:40.583Z,97788.38
2018-12-23T09:46:46.490Z,97781.61
2018-12-23T09:49:52.422Z,97770.89
2018-12-23T09:52:58.374Z,97770.91
2018-12-23T09:56:04.146Z,97773.42
2018-12-23T09:59:10.271Z,97772.55
2018-12-23T10:02:16.139Z,97773.00
2018-12-23T10:05:21.761Z,97776.73
2018-12-23T10:08:27.726Z,97776.23
2018-12-23T10:11:34.459Z,97772.00
2018-12-23T10:14:40.393Z,97756.31
2018-12-23T10:17:46.314Z,97753.79
2018-12-23T10:20:52.488Z,97749.08
2018-12-23T10:23:58.473Z,97744.37
2018-12-23T10:27:04.206Z,97738.84
2018-12-23T10:30:11.548Z,97740.12
2018-12-23T10:33:17.503Z,97741.35
2018-12-23T10:36:23.410Z,97732.84
2018-12-23T10:39:29.678Z,97733.14
2018-12-23T10:42:35.444Z,97720.05
2018-12-23T10:45:41.684Z,97716.58
2018-12-23T10:48:48.370Z,97713.16
2018-12-23T10:51:54.958Z,97713.59
2018-12-23T10:55:01.971Z,97702.53
2018-12-23T10:58:07.942Z,97700.38
2018-12-23T11:01:13.849Z,97700.42
2018-12-23T11:04:20.035Z,97688.91
2018-12-23T11:07:26.715Z,97684.58
2018-12-23T11:10:32.594Z,97692.67
2018-12-23T11:13:38.372Z,97683.72
2018-12-23T11:16:44.853Z,97673.91
2018-12-23T11:19:50.770Z,97670.91
2018-12-23T11:22:56.717Z,97667.09
2018-12-23T11:26:02.932Z,97659.45
2018-12-23T11:29:09.219Z,97666.17
2018-12-23T11:32:14.966Z,97658.93
2018-12-23T11:35:21.490Z,97659.20
2018-12-23T11:38:35.276Z,97652.86
2018-12-23T11:41:35.919Z,97644.36
2018-12-23T11:44:43.180Z,97641.70
2018-12-23T11:47:49.263Z,97635.49
2018-12-23T11:50:55.167Z,97629.50
2018-12-23T11:54:01.111Z,97617.56
2018-12-23T11:57:06.997Z,97621.38
2018-12-23T12:00:13.129Z,97614.66
2018-12-23T12:03:19.712Z,97605.30
2018-12-23T12:06:26.407Z,97604.47
2018-12-23T12:09:32.507Z,97601.53
2018-12-23T12:12:38.615Z,97594.34
2018-12-23T12:15:44.762Z,97589.70
2018-12-23T12:18:50.557Z,97594.34
2018-12-23T12:22:32.258Z,97589.65
2018-12-23T12:25:39.722Z,97584.20
2018-12-23T12:28:47.338Z,97578.31
2018-12-23T12:31:54.606Z,97571.07
2018-12-23T12:35:01.817Z,97562.58
2018-12-23T12:38:10.512Z,97558.77
2018-12-23T12:41:18.246Z,97558.78
2018-12-23T12:44:25.637Z,97554.97
2018-12-23T12:47:33.333Z,97554.97
2018-12-23T12:50:42.633Z,97557.97
2018-12-23T12:53:50.298Z,97553.59
2018-12-23T12:56:58.027Z,97548.55
2018-12-23T13:00:06.096Z,97551.20
2018-12-23T13:03:13.869Z,97556.33
2018-12-23T13:06:21.329Z,97547.47
2018-12-23T13:09:28.596Z,97549.56
2018-12-23T13:12:36.173Z,97553.11
2018-12-23T13:15:46.008Z,97563.00
2018-12-23T13:18:53.220Z,97551.69
2018-12-23T13:22:00.804Z,97545.77
2018-12-23T13:25:08.447Z,97538.26
2018-12-23T13:28:16.049Z,97529.88
2018-12-23T13:31:23.329Z,97526.60
2018-12-23T13:34:32.559Z,97519.77
2018-12-23T13:37:39.615Z,97514.78
2018-12-23T13:41:06.127Z,97509.62
2018-12-23T13:45:11.327Z,97504.55
2018-12-23T13:49:04.922Z,97501.16
2018-12-23T13:53:30.778Z,97504.08
2018-12-23T13:57:18.892Z,97496.88
2018-12-23T14:01:34.059Z,97480.38
2018-12-23T14:05:11.831Z,97478.31
2018-12-23T14:09:07.069Z,97478.34
2018-12-23T14:12:14.598Z,97472.37
2018-12-23T14:15:22.084Z,97475.89
2018-12-23T14:18:29.638Z,97460.03
2018-12-23T14:21:37.143Z,97468.43
2018-12-23T14:24:45.480Z,97467.23
2018-12-23T14:27:53.041Z,97463.02
2018-12-23T14:31:00.598Z,97457.18
2018-12-23T14:34:08.372Z,97443.94
2018-12-23T14:37:17.579Z,97442.87
2018-12-23T14:40:26.825Z,97433.49
2018-12-23T14:43:34.574Z,97429.70
2018-12-23T14:46:43.935Z,97424.64
2018-12-23T14:49:51.436Z,97429.73
2018-12-23T14:52:58.754Z,97430.55
2018-12-23T14:56:06.215Z,97420.19
2018-12-23T14:59:14.598Z,97421.04
2018-12-23T15:02:22.033Z,97422.70
2018-12-23T15:05:29.609Z,97422.70
2018-12-23T15:08:37.186Z,97423.22
2018-12-23T15:11:46.763Z,97423.19
2018-12-23T15:14:54.349Z,97421.12
2018-12-23T15:18:01.713Z,97423.89
2018-12-23T15:21:09.072Z,97421.70
2018-12-23T15:24:16.253Z,97423.84
2018-12-23T15:27:23.934Z,97414.44
2018-12-23T15:30:31.665Z,97408.55
2018-12-23T15:33:39.521Z,97399.78
2018-12-23T15:36:47.035Z,97399.33
2018-12-23T15:39:54.416Z,97387.47
2018-12-23T15:43:01.879Z,97385.34
2018-12-23T15:46:28.400Z,97375.22
2018-12-23T15:49:35.707Z,97370.16
2018-12-23T15:52:45.310Z,97366.34
2018-12-23T15:55:52.910Z,97355.59
2018-12-23T15:59:00.437Z,97353.41
2018-12-23T16:02:07.842Z,97351.69
2018-12-23T16:05:15.113Z,97351.97
2018-12-23T16:08:22.357Z,97348.43
2018-12-23T16:11:31.598Z,97333.75
2018-12-23T16:14:39.193Z,97326.73
2018-12-23T16:17:47.759Z,97322.47
2018-12-23T16:20:55.193Z,97315.37
2018-12-23T16:24:02.755Z,97311.83
2018-12-23T16:27:10.197Z,97302.44
2018-12-23T16:30:17.728Z,97307.27
2018-12-23T16:33:25.387Z,97295.73
2018-12-23T16:36:32.616Z,97299.32
2018-12-23T16:39:40.144Z,97286.00
2018-12-23T16:42:47.361Z,97274.76
2018-12-23T16:45:55.054Z,97268.43
2018-12-23T16:49:02.717Z,97273.09
2018-12-23T16:52:10.499Z,97263.13
2018-12-23T16:55:18.129Z,97260.01
2018-12-23T16:58:25.565Z,97243.73
2018-12-23T17:01:33.088Z,97250.05
2018-12-23T17:04:40.546Z,97245.64
2018-12-23T17:07:48.110Z,97239.60
2018-12-23T17:10:55.622Z,97242.33
2018-12-23T17:14:03.132Z,97236.61
2018-12-23T17:17:10.728Z,97232.09
2018-12-23T17:20:18.359Z,97233.97
2018-12-23T17:23:25.902Z,97233.44
2018-12-23T17:26:33.360Z,97230.29
2018-12-23T17:29:40.582Z,97221.81
2018-12-23T17:32:48.085Z,97210.13
2018-12-23T17:35:55.293Z,97205.97
2018-12-23T17:39:04.945Z,97197.92
2018-12-23T17:42:12.363Z,97191.83
2018-12-23T17:45:19.956Z,97191.03
2018-12-23T17:48:27.776Z,97195.22
2018-12-23T17:51:35.418Z,97183.66
2018-12-23T17:54:42.906Z,97181.45
2018-12-23T17:57:50.414Z,97181.75
2018-12-23T18:00:58.254Z,97184.12
2018-12-23T18:04:05.571Z,97182.63
2018-12-23T18:07:13.162Z,97182.59
2018-12-23T18:10:25.010Z,97179.40
2018-12-23T18:13:30.323Z,97175.88
2018-12-23T18:16:37.959Z,97164.97
2018-12-23T18:19:45.651Z,97156.64
2018-12-23T18:22:53.420Z,97147.55
2018-12-23T18:26:00.946Z,97131.47
2018-12-23T18:29:08.414Z,97136.47
2018-12-23T18:32:15.902Z,97123.48
2018-12-23T18:35:23.633Z,97116.48
2018-12-23T18:38:31.099Z,97123.80
2018-12-23T18:41:38.424Z,97129.92
2018-12-23T18:44:46.017Z,97118.59
2018-12-23T18:47:53.477Z,97118.01
2018-12-23T18:51:00.973Z,97107.78
2018-12-23T18:54:26.026Z,97115.52
2018-12-23T18:57:42.572Z,97094.41
2018-12-23T19:00:55.548Z,97091.39
2018-12-23T19:04:02.747Z,97083.66
2018-12-23T19:07:10.510Z,97070.45
2018-12-23T19:11:21.037Z,97067.83
2018-12-23T19:15:15.576Z,97049.75
2018-12-23T19:19:34.060Z,97051.48
2018-12-23T19:23:56.445Z,97060.21
2018-12-23T19:27:39.024Z,97043.07
2018-12-23T19:31:40.470Z,97051.36
2018-12-23T19:35:49.169Z,97041.08
2018-12-23T19:40:29.775Z,97045.67
2018-12-23T19:44:35.132Z,97029.86
2018-12-23T19:48:50.494Z,97011.74
2018-12-23T19:53:37.531Z,97006.63
2018-12-23T19:57:56.759Z,97011.25
2018-12-23T20:02:01.976Z,96994.33
2018-12-23T20:06:20.740Z,96987.92
2018-12-23T20:10:01.157Z,96995.69
2018-12-23T20:13:50.256Z,96988.06
2018-12-23T20:17:41.441Z,96980.77
2018-12-23T20:21:43.944Z,96992.27
2018-12-23T20:26:09.525Z,96999.04
2018-12-23T20:30:17.699Z,97005.33
2018-12-23T20:34:34.024Z,96997.86
2018-12-23T20:39:02.167Z,97005.30
2018-12-23T20:43:06.711Z,97024.28
2018-12-23T20:47:17.603Z,97024.86
2018-12-23T20:51:30.379Z,97006.66
2018-12-23T20:55:24.535Z,97002.67
2018-12-23T20:59:20.566Z,96993.75
2018-12-23T21:03:19.514Z,96994.02
2018-12-23T21:07:23.423Z,96980.93
2018-12-23T21:11:16.118Z,96958.33
2018-12-23T21:15:14.232Z,96941.95
2018-12-23T21:19:22.825Z,96929.70
2018-12-23T21:23:43.623Z,96924.27
2018-12-23T21:27:44.204Z,96912.16
2018-12-23T21:31:33.721Z,96919.83
2018-12-23T21:35:34.369Z,96927.72
2018-12-23T21:39:53.766Z,96928.02
2018-12-23T21:44:23.087Z,96928.27
2018-12-23T21:48:06.722Z,96942.06
2018-12-23T21:52:08.554Z,96927.65
2018-12-23T21:56:21.492Z,96915.73
2018-12-23T22:01:33.288Z,96898.09
2018-12-23T22:05:47.340Z,96891.28
2018-12-23T22:09:56.758Z,96878.23
2018-12-23T22:13:34.878Z,96893.08
2018-12-23T22:16:42.229Z,96894.41
2018-12-23T22:19:49.464Z,96901.48
2018-12-23T22:22:58.507Z,96895.09
2018-12-23T22:26:06.503Z,96887.05
2018-12-23T22:29:13.879Z,96878.75
2018-12-23T22:32:20.982Z,96872.50
2018-12-23T22:35:28.011Z,96858.05
2018-12-23T22:38:35.366Z,96874.49
2018-12-23T22:41:42.292Z,96871.84
2018-12-23T22:44:50.792Z,96847.94
2018-12-23T22:47:57.892Z,96863.19
2018-12-23T22:51:04.730Z,96868.20
2018-12-23T22:54:12.491Z,96867.45
2018-12-23T22:57:19.590Z,96862.44
2018-12-23T23:00:31.668Z,96858.33
2018-12-23T23:03:39.139Z,96852.48
2018-12-23T23:06:48.466Z,96851.11
2018-12-23T23:09:55.118Z,96859.47
2018-12-23T23:13:02.024Z,96851.56
2018-12-23T23:16:09.257Z,96842.44
2018-12-23T23:19:16.155Z,96831.96
2018-12-23T23:22:22.835Z,96842.89
2018-12-23T23:25:29.870Z,96848.08
2018-12-23T23:28:36.691Z,96852.13
2018-12-23T23:31:44.480Z,96837.48
2018-12-23T23:34:51.441Z,96837.23
2018-12-23T23:37:58.392Z,96830.90
2018-12-23T23:41:05.390Z,96823.69
2018-12-23T23:44:12.641Z,96827.77
2018-12-23T23:47:19.337Z,96826.03
2018-12-23T23:50:26.320Z,96827.23
2018-12-23T23:53:32.982Z,96833.03
2018-12-23T23:56:40.016Z,96834.70
2018-12-23T23:59:48.596Z,96838.56
